NSI weather

San Nicolas Island Nolf Airport
San Nicolas Island, California, United States

Public forecast

Using degrees Fahrenheit for public forecast. Weather courtesy of forecast.io.

METAR (pilot weather report)

Retrieved 2019/04/24 17:56 UTC (10 minutes ago):

KNSI 241756Z 00000KT 7SM FEW003 SCT008 18/14 A3001 RMK AO2 SLP157 T01780139 10189 20122 53006 $

TAF (pilot weather forecast)

Forecast is more than 12 hours old.

Closest forecast is Point Mugu Naval Air Station (Naval Base Ventura Co), 55.5 nm (102.8 km) NNE. Retrieved 2016/08/04 23:22 UTC (3 years ago):

TAF KNTD 032300Z 0323/0423 27010G15KT 9999 SCT012 QNH2990INS BECMG 0401/0403 VRB06KT 9999 BKN012 QNH2988INS TEMPO 0403/0409 SCT012 FM040900 VRB05KT 9999 BKN010 QNH2985INS FM041700 24009KT 9999 SCT015 QNH2992INS AUTOMATED SENSOR METWATCH 0406 TIL 0413 TX17/0409Z TN23/0422Z FS30029